createdAt,value
2022-08-19T00:00:21.780Z,3.40
2022-08-19T00:04:07.097Z,2.35
2022-08-19T00:07:50.049Z,1.38
2022-08-19T00:11:33.361Z,1.73
2022-08-19T00:15:18.628Z,1.67
2022-08-19T00:19:00.967Z,2.15
2022-08-19T00:22:43.669Z,2.30
2022-08-19T00:26:27.582Z,2.08
2022-08-19T00:30:11.412Z,1.73
2022-08-19T00:33:53.389Z,1.77
2022-08-19T00:37:36.101Z,5.27
2022-08-19T00:41:22.191Z,1.92
2022-08-19T00:45:12.690Z,1.70
2022-08-19T00:48:55.767Z,1.90
2022-08-19T00:52:45.588Z,2.65
2022-08-19T00:56:28.299Z,2.88
2022-08-19T01:00:15.224Z,2.17
2022-08-19T01:03:58.753Z,2.15
2022-08-19T01:07:42.150Z,1.67
2022-08-19T01:11:24.124Z,1.65
2022-08-19T01:15:09.302Z,1.80
2022-08-19T01:18:51.646Z,2.20
2022-08-19T01:22:39.185Z,1.95
2022-08-19T01:26:24.934Z,2.37
2022-08-19T01:30:08.987Z,2.00
2022-08-19T01:33:53.578Z,1.90
2022-08-19T01:37:48.543Z,2.22
2022-08-19T01:41:30.535Z,1.60
2022-08-19T01:45:12.512Z,1.85
2022-08-19T01:48:54.528Z,2.25
2022-08-19T01:52:38.628Z,2.63
2022-08-19T01:56:21.843Z,5.65
2022-08-19T02:00:08.708Z,4.55
2022-08-19T02:03:50.645Z,2.87
2022-08-19T02:07:33.851Z,3.47
2022-08-19T02:11:27.632Z,3.45
2022-08-19T02:15:09.988Z,2.28
2022-08-19T02:18:52.495Z,2.33
2022-08-19T02:22:34.845Z,2.40
2022-08-19T02:26:17.489Z,2.00
2022-08-19T02:29:59.492Z,3.17
2022-08-19T02:33:41.949Z,2.42
2022-08-19T02:37:42.317Z,4.95
2022-08-19T02:41:28.047Z,3.77
2022-08-19T02:45:13.970Z,3.10
2022-08-19T02:49:37.644Z,4.25
2022-08-19T02:53:19.900Z,2.42
2022-08-19T02:57:01.810Z,5.97
2022-08-19T03:00:46.546Z,5.78
2022-08-19T03:04:28.563Z,3.40
2022-08-19T03:08:13.353Z,3.80
2022-08-19T03:11:55.253Z,3.50
2022-08-19T03:15:40.789Z,4.78
2022-08-19T03:19:22.789Z,3.03
2022-08-19T03:23:04.811Z,3.55
2022-08-19T03:26:49.946Z,4.95
2022-08-19T03:30:31.934Z,4.78
2022-08-19T03:34:22.239Z,5.82
2022-08-19T03:38:05.486Z,3.85
2022-08-19T03:42:32.155Z,6.70
2022-08-19T03:46:09.194Z,6.70
2022-08-19T03:49:51.209Z,7.97
2022-08-19T03:53:34.407Z,7.03
2022-08-19T03:57:16.569Z,5.77
2022-08-19T04:00:59.022Z,8.43
2022-08-19T04:04:44.570Z,7.80
2022-08-19T04:08:26.872Z,7.22
2022-08-19T04:12:09.344Z,7.47
2022-08-19T04:15:51.393Z,7.22
2022-08-19T04:19:34.649Z,8.15
2022-08-19T04:23:16.742Z,7.80
2022-08-19T04:27:04.313Z,9.23
2022-08-19T04:30:50.688Z,8.75
2022-08-19T04:34:32.576Z,7.73
2022-08-19T04:38:16.145Z,8.70
2022-08-19T04:42:16.508Z,11.80
2022-08-19T04:46:01.173Z,11.85
2022-08-19T04:49:43.246Z,13.15
2022-08-19T04:53:37.746Z,10.27
2022-08-19T04:57:20.025Z,11.00
2022-08-19T05:01:02.206Z,12.07
2022-08-19T05:04:44.137Z,11.70
2022-08-19T05:08:30.924Z,14.27
2022-08-19T05:12:13.949Z,13.23
2022-08-19T05:15:58.432Z,11.95
2022-08-19T05:19:59.985Z,9.50
2022-08-19T05:23:42.194Z,10.82
2022-08-19T05:27:24.139Z,9.05
2022-08-19T05:31:06.122Z,12.25
2022-08-19T05:34:48.085Z,12.38
2022-08-19T05:38:31.092Z,10.07
2022-08-19T05:42:13.732Z,12.93
2022-08-19T05:45:56.216Z,13.52
2022-08-19T05:49:39.048Z,14.43
2022-08-19T05:53:21.191Z,9.10
2022-08-19T05:57:03.807Z,10.75
2022-08-19T06:00:46.250Z,9.82
2022-08-19T06:04:28.239Z,11.90
2022-08-19T06:08:10.142Z,11.07
2022-08-19T06:11:55.998Z,9.85
2022-08-19T06:15:38.115Z,9.27
2022-08-19T06:19:42.125Z,11.82
2022-08-19T06:24:10.628Z,10.00
2022-08-19T06:28:14.212Z,11.40
2022-08-19T06:32:22.287Z,9.25
2022-08-19T06:36:05.673Z,11.80
2022-08-19T06:44:43.835Z,10.70
2022-08-19T06:52:22.586Z,7.40
2022-08-19T06:56:55.621Z,9.27
2022-08-19T07:01:22.312Z,7.72
2022-08-19T07:05:06.625Z,11.80
2022-08-19T07:08:49.832Z,7.50
2022-08-19T07:12:38.176Z,9.63
2022-08-19T07:16:28.852Z,8.60
2022-08-19T07:20:32.822Z,7.00
2022-08-19T07:25:04.651Z,11.45
2022-08-19T07:28:52.897Z,7.90
2022-08-19T07:36:37.673Z,7.13
2022-08-19T07:40:21.872Z,9.57
2022-08-19T07:44:10.117Z,7.40
2022-08-19T07:48:13.604Z,7.60
2022-08-19T07:52:37.280Z,6.47
2022-08-19T07:56:44.038Z,8.13
2022-08-19T08:00:27.054Z,7.50
2022-08-19T08:04:51.621Z,6.73
2022-08-19T08:09:12.206Z,7.53
2022-08-19T08:17:00.550Z,5.83
2022-08-19T08:24:59.455Z,7.60
2022-08-19T08:29:17.071Z,7.53
2022-08-19T08:33:00.084Z,8.05
2022-08-19T08:45:19.448Z,6.40
2022-08-19T08:53:17.363Z,9.07
2022-08-19T08:57:29.405Z,6.10
2022-08-19T09:01:53.893Z,7.45
2022-08-19T09:09:50.056Z,8.27
2022-08-19T09:18:07.213Z,6.70
2022-08-19T09:22:13.553Z,6.22
2022-08-19T09:26:47.540Z,8.07
2022-08-19T09:31:13.898Z,8.25
2022-08-19T09:34:56.581Z,7.13
2022-08-19T09:39:25.382Z,9.13
2022-08-19T09:43:44.464Z,7.13
2022-08-19T09:51:40.038Z,9.20
2022-08-19T09:56:01.888Z,8.70
2022-08-19T09:59:47.341Z,9.20
2022-08-19T10:03:55.682Z,7.97
2022-08-19T10:07:38.679Z,8.67
2022-08-19T10:12:06.472Z,13.18
2022-08-19T10:16:21.130Z,8.80
2022-08-19T10:20:05.371Z,7.67
2022-08-19T10:27:51.470Z,6.53
2022-08-19T10:32:09.556Z,7.97
2022-08-19T10:40:03.386Z,7.95
2022-08-19T10:47:52.618Z,8.70
2022-08-19T11:00:15.926Z,7.33
2022-08-19T11:03:58.734Z,6.28
2022-08-19T11:08:27.804Z,8.15
2022-08-19T11:12:55.876Z,7.73
2022-08-19T11:17:11.842Z,6.97
2022-08-19T11:20:54.084Z,7.65
2022-08-19T11:24:57.887Z,10.40
2022-08-19T11:28:40.756Z,7.97
2022-08-19T11:32:57.052Z,8.38
2022-08-19T11:41:00.566Z,7.63
2022-08-19T11:45:17.104Z,6.47
2022-08-19T11:49:01.620Z,5.97
2022-08-19T11:53:20.408Z,8.50
2022-08-19T12:01:22.718Z,6.68
2022-08-19T12:09:11.584Z,6.93
2022-08-19T12:13:29.048Z,8.00
2022-08-19T12:17:12.704Z,8.30
2022-08-19T12:21:22.941Z,6.17
2022-08-19T12:25:07.180Z,8.40
2022-08-19T12:33:00.191Z,8.63
2022-08-19T12:37:10.977Z,6.55
2022-08-19T12:40:57.140Z,9.47
2022-08-19T12:44:58.896Z,8.05
2022-08-19T12:48:43.688Z,7.22
2022-08-19T12:53:11.792Z,7.03
2022-08-19T12:57:40.298Z,6.22
2022-08-19T13:02:09.227Z,10.38
2022-08-19T13:06:25.656Z,7.93
2022-08-19T13:10:10.694Z,8.10
2022-08-19T13:14:14.439Z,7.67
2022-08-19T13:17:57.408Z,7.88
2022-08-19T13:22:26.072Z,8.23
2022-08-19T13:26:37.978Z,9.32
2022-08-19T13:34:39.155Z,11.43
2022-08-19T13:42:48.751Z,9.25
2022-08-19T13:51:45.289Z,8.67
2022-08-19T13:55:56.353Z,9.40
2022-08-19T13:59:38.839Z,8.82
2022-08-19T14:07:25.815Z,8.30
2022-08-19T14:15:24.361Z,10.70
2022-08-19T14:23:14.711Z,9.55
2022-08-19T14:27:28.545Z,11.63
2022-08-19T14:35:30.108Z,13.68
2022-08-19T14:43:15.628Z,10.30
2022-08-19T14:47:00.550Z,6.32
2022-08-19T14:51:07.393Z,7.63
2022-08-19T14:54:49.751Z,7.90
2022-08-19T14:59:18.429Z,9.02
2022-08-19T15:03:31.443Z,5.97
2022-08-19T15:07:13.991Z,7.70
2022-08-19T15:15:03.398Z,7.88
2022-08-19T15:19:17.002Z,9.77
2022-08-19T15:23:00.187Z,8.33
2022-08-19T15:27:11.020Z,5.85
2022-08-19T15:30:53.620Z,7.90
2022-08-19T15:38:40.259Z,4.85
2022-08-19T15:46:40.638Z,5.80
2022-08-19T15:51:08.665Z,5.50
2022-08-19T15:55:32.150Z,5.90
2022-08-19T15:59:50.789Z,4.93
2022-08-19T16:07:51.224Z,4.45
2022-08-19T16:15:57.073Z,6.60
2022-08-19T16:20:26.343Z,4.03
2022-08-19T16:24:55.602Z,5.40
2022-08-19T16:29:08.785Z,5.80
2022-08-19T16:32:51.602Z,6.03
2022-08-19T16:37:22.375Z,6.28
2022-08-19T16:41:51.705Z,6.45
2022-08-19T16:46:19.666Z,6.23
2022-08-19T16:50:48.861Z,5.72
2022-08-19T16:55:03.068Z,5.63
2022-08-19T16:58:45.561Z,7.83
2022-08-19T17:03:15.275Z,9.43
2022-08-19T17:07:43.954Z,5.72
2022-08-19T17:11:55.427Z,4.93
2022-08-19T17:15:37.916Z,4.97
2022-08-19T17:19:48.293Z,5.97
2022-08-19T17:23:42.970Z,4.18
2022-08-19T17:27:42.676Z,6.75
2022-08-19T17:31:28.391Z,6.93
2022-08-19T17:43:43.158Z,5.55
2022-08-19T17:51:45.042Z,6.22
2022-08-19T17:59:31.119Z,4.10
2022-08-19T18:03:44.442Z,6.03
2022-08-19T18:07:26.979Z,7.32
2022-08-19T18:15:13.408Z,6.32
2022-08-19T18:19:40.823Z,6.65
2022-08-19T18:24:01.862Z,6.00
2022-08-19T18:27:44.637Z,4.47
2022-08-19T18:32:13.089Z,6.28
2022-08-19T18:36:43.615Z,6.30
2022-08-19T18:41:12.076Z,6.17
2022-08-19T18:45:43.938Z,4.82
2022-08-19T18:49:54.089Z,5.53
2022-08-19T18:53:39.463Z,6.20
2022-08-19T19:01:32.613Z,6.20
2022-08-19T19:06:00.972Z,5.93
2022-08-19T19:10:12.040Z,6.70
2022-08-19T19:13:54.464Z,7.53
2022-08-19T19:18:21.460Z,4.63
2022-08-19T19:22:18.885Z,5.57
2022-08-19T19:26:01.775Z,8.13
2022-08-19T19:29:45.018Z,7.88
2022-08-19T19:33:29.436Z,8.53
2022-08-19T19:37:11.648Z,4.93
2022-08-19T19:40:53.585Z,9.00
2022-08-19T19:44:39.755Z,7.75
2022-08-19T19:48:21.864Z,6.75
2022-08-19T19:52:04.149Z,6.57
2022-08-19T19:55:46.105Z,7.40
2022-08-19T19:59:28.014Z,7.37
2022-08-19T20:03:10.764Z,4.03
2022-08-19T20:06:52.744Z,5.28
2022-08-19T20:10:35.042Z,4.80
2022-08-19T20:14:25.655Z,5.55
2022-08-19T20:18:07.638Z,6.07
2022-08-19T20:21:51.438Z,5.25
2022-08-19T20:25:34.577Z,7.10
2022-08-19T20:29:38.776Z,5.45
2022-08-19T20:33:20.407Z,8.93
2022-08-19T20:37:02.449Z,6.50
2022-08-19T20:40:44.423Z,10.63
2022-08-19T20:44:26.649Z,6.82
2022-08-19T20:48:10.647Z,9.13
2022-08-19T20:51:52.534Z,11.95
2022-08-19T20:55:35.190Z,8.77
2022-08-19T20:59:17.098Z,9.10
2022-08-19T21:02:58.980Z,10.98
2022-08-19T21:06:42.228Z,9.23
2022-08-19T21:10:27.652Z,8.50
2022-08-19T21:14:10.085Z,8.37
2022-08-19T21:17:52.087Z,7.32
2022-08-19T21:21:35.123Z,5.10
2022-08-19T21:25:18.140Z,6.97
2022-08-19T21:29:00.126Z,8.23
2022-08-19T21:32:42.078Z,7.30
2022-08-19T21:36:24.331Z,6.38
2022-08-19T21:40:07.591Z,11.07
2022-08-19T21:43:49.584Z,8.13
2022-08-19T21:47:31.600Z,8.73
2022-08-19T21:51:13.742Z,7.00
2022-08-19T21:54:55.945Z,5.95
2022-08-19T21:58:37.934Z,8.25
2022-08-19T22:02:21.740Z,7.73
2022-08-19T22:06:04.578Z,7.35
2022-08-19T22:09:48.118Z,7.15
2022-08-19T22:13:37.953Z,6.85
2022-08-19T22:17:22.809Z,5.40
2022-08-19T22:21:11.426Z,7.63
2022-08-19T22:25:00.012Z,10.40
2022-08-19T22:28:43.080Z,5.07
2022-08-19T22:32:28.654Z,6.32
2022-08-19T22:36:10.781Z,4.18
2022-08-19T22:39:52.799Z,8.23
2022-08-19T22:43:36.987Z,10.40
2022-08-19T22:47:19.364Z,9.23
2022-08-19T22:51:20.027Z,8.25
2022-08-19T22:55:06.408Z,11.45
2022-08-19T22:58:50.641Z,7.65
2022-08-19T23:02:38.940Z,4.88
2022-08-19T23:06:36.355Z,7.03
2022-08-19T23:10:26.631Z,5.47
2022-08-19T23:14:11.158Z,8.30
2022-08-19T23:17:55.687Z,10.40
2022-08-19T23:21:39.743Z,5.63
2022-08-19T23:25:27.943Z,7.65
2022-08-19T23:29:28.285Z,6.00
2022-08-19T23:33:46.856Z,8.73
2022-08-19T23:37:30.669Z,9.20
2022-08-19T23:41:14.019Z,9.57
2022-08-19T23:45:02.299Z,10.13
2022-08-19T23:48:46.772Z,9.70
2022-08-19T23:52:29.486Z,8.68
2022-08-19T23:56:12.286Z,9.83
2022-08-19T23:59:54.455Z,10.45
